sensor_id;sensor_type;location;lat;lon;timestamp;P1;durP1;ratioP1;P2;durP2;ratioP2
76131;SDS011;64877;50.994;13.650;2023-11-19T00:01:43;6.20;;;3.83;;
76131;SDS011;64877;50.994;13.650;2023-11-19T00:04:12;7.78;;;3.80;;
76131;SDS011;64877;50.994;13.650;2023-11-19T00:06:39;7.90;;;4.95;;
76131;SDS011;64877;50.994;13.650;2023-11-19T00:11:33;6.78;;;4.07;;
76131;SDS011;64877;50.994;13.650;2023-11-19T00:14:01;8.20;;;4.72;;
76131;SDS011;64877;50.994;13.650;2023-11-19T00:16:28;11.05;;;5.93;;
76131;SDS011;64877;50.994;13.650;2023-11-19T00:18:56;7.43;;;4.85;;
76131;SDS011;64877;50.994;13.650;2023-11-19T00:21:21;9.98;;;6.18;;
76131;SDS011;64877;50.994;13.650;2023-11-19T00:23:47;8.18;;;4.72;;
76131;SDS011;64877;50.994;13.650;2023-11-19T00:26:15;8.30;;;5.32;;
76131;SDS011;64877;50.994;13.650;2023-11-19T00:28:43;7.47;;;4.65;;
76131;SDS011;64877;50.994;13.650;2023-11-19T00:31:09;9.57;;;5.65;;
76131;SDS011;64877;50.994;13.650;2023-11-19T00:33:34;8.43;;;5.50;;
76131;SDS011;64877;50.994;13.650;2023-11-19T00:36:01;7.43;;;5.50;;
76131;SDS011;64877;50.994;13.650;2023-11-19T00:38:28;8.98;;;5.43;;
76131;SDS011;64877;50.994;13.650;2023-11-19T00:40:53;9.25;;;5.05;;
76131;SDS011;64877;50.994;13.650;2023-11-19T00:43:18;9.52;;;6.05;;
76131;SDS011;64877;50.994;13.650;2023-11-19T00:45:47;8.70;;;5.78;;
76131;SDS011;64877;50.994;13.650;2023-11-19T00:48:15;9.40;;;5.72;;
76131;SDS011;64877;50.994;13.650;2023-11-19T00:50:41;7.57;;;4.55;;
76131;SDS011;64877;50.994;13.650;2023-11-19T00:53:09;8.07;;;5.15;;
76131;SDS011;64877;50.994;13.650;2023-11-19T00:55:35;7.85;;;5.03;;
76131;SDS011;64877;50.994;13.650;2023-11-19T00:58:00;7.97;;;4.70;;
76131;SDS011;64877;50.994;13.650;2023-11-19T01:00:26;6.03;;;4.32;;
76131;SDS011;64877;50.994;13.650;2023-11-19T01:02:52;6.55;;;4.32;;
76131;SDS011;64877;50.994;13.650;2023-11-19T01:05:18;7.63;;;5.07;;
76131;SDS011;64877;50.994;13.650;2023-11-19T01:07:47;7.45;;;4.25;;
76131;SDS011;64877;50.994;13.650;2023-11-19T01:10:13;7.60;;;4.95;;
76131;SDS011;64877;50.994;13.650;2023-11-19T01:12:40;6.82;;;3.92;;
76131;SDS011;64877;50.994;13.650;2023-11-19T01:15:06;6.03;;;3.92;;
76131;SDS011;64877;50.994;13.650;2023-11-19T01:17:33;6.13;;;4.20;;
76131;SDS011;64877;50.994;13.650;2023-11-19T01:19:58;4.75;;;2.55;;
76131;SDS011;64877;50.994;13.650;2023-11-19T01:22:24;4.82;;;3.13;;
76131;SDS011;64877;50.994;13.650;2023-11-19T01:24:50;3.97;;;2.50;;
76131;SDS011;64877;50.994;13.650;2023-11-19T01:27:17;3.65;;;2.30;;
76131;SDS011;64877;50.994;13.650;2023-11-19T01:29:42;3.67;;;2.42;;
76131;SDS011;64877;50.994;13.650;2023-11-19T01:32:08;4.53;;;2.63;;
76131;SDS011;64877;50.994;13.650;2023-11-19T01:34:33;3.83;;;2.53;;
76131;SDS011;64877;50.994;13.650;2023-11-19T01:36:59;3.38;;;2.20;;
76131;SDS011;64877;50.994;13.650;2023-11-19T01:39:24;3.83;;;2.45;;
76131;SDS011;64877;50.994;13.650;2023-11-19T01:41:50;3.55;;;2.40;;
76131;SDS011;64877;50.994;13.650;2023-11-19T01:44:15;4.13;;;2.30;;
76131;SDS011;64877;50.994;13.650;2023-11-19T01:46:42;3.42;;;1.55;;
76131;SDS011;64877;50.994;13.650;2023-11-19T01:49:09;2.85;;;1.80;;
76131;SDS011;64877;50.994;13.650;2023-11-19T01:51:35;2.97;;;1.60;;
76131;SDS011;64877;50.994;13.650;2023-11-19T01:54:00;3.65;;;1.50;;
76131;SDS011;64877;50.994;13.650;2023-11-19T01:56:27;3.25;;;1.60;;
76131;SDS011;64877;50.994;13.650;2023-11-19T01:58:53;3.15;;;1.70;;
76131;SDS011;64877;50.994;13.650;2023-11-19T02:01:20;2.95;;;1.70;;
76131;SDS011;64877;50.994;13.650;2023-11-19T02:03:47;2.88;;;1.90;;
76131;SDS011;64877;50.994;13.650;2023-11-19T02:06:12;2.40;;;1.67;;
76131;SDS011;64877;50.994;13.650;2023-11-19T02:08:38;3.38;;;1.70;;
76131;SDS011;64877;50.994;13.650;2023-11-19T02:11:04;2.97;;;1.88;;
76131;SDS011;64877;50.994;13.650;2023-11-19T02:13:32;3.28;;;2.00;;
76131;SDS011;64877;50.994;13.650;2023-11-19T02:15:57;3.33;;;1.67;;
76131;SDS011;64877;50.994;13.650;2023-11-19T02:18:25;3.20;;;1.98;;
76131;SDS011;64877;50.994;13.650;2023-11-19T02:20:55;3.03;;;2.10;;
76131;SDS011;64877;50.994;13.650;2023-11-19T02:23:22;3.17;;;2.40;;
76131;SDS011;64877;50.994;13.650;2023-11-19T02:28:32;4.45;;;2.67;;
76131;SDS011;64877;50.994;13.650;2023-11-19T02:30:58;3.95;;;2.80;;
76131;SDS011;64877;50.994;13.650;2023-11-19T02:33:24;4.18;;;2.50;;
76131;SDS011;64877;50.994;13.650;2023-11-19T02:35:50;3.75;;;2.67;;
76131;SDS011;64877;50.994;13.650;2023-11-19T02:38:16;3.80;;;2.22;;
76131;SDS011;64877;50.994;13.650;2023-11-19T02:40:41;4.13;;;2.65;;
76131;SDS011;64877;50.994;13.650;2023-11-19T02:43:07;3.50;;;2.40;;
76131;SDS011;64877;50.994;13.650;2023-11-19T02:45:33;3.50;;;2.28;;
76131;SDS011;64877;50.994;13.650;2023-11-19T02:47:59;3.67;;;2.35;;
76131;SDS011;64877;50.994;13.650;2023-11-19T02:50:27;4.47;;;2.13;;
76131;SDS011;64877;50.994;13.650;2023-11-19T02:52:54;3.45;;;2.33;;
76131;SDS011;64877;50.994;13.650;2023-11-19T02:55:21;3.35;;;2.10;;
76131;SDS011;64877;50.994;13.650;2023-11-19T02:57:49;3.10;;;2.13;;
76131;SDS011;64877;50.994;13.650;2023-11-19T03:00:18;3.03;;;1.73;;
76131;SDS011;64877;50.994;13.650;2023-11-19T03:02:48;4.20;;;1.65;;
76131;SDS011;64877;50.994;13.650;2023-11-19T03:05:23;3.38;;;1.73;;
76131;SDS011;64877;50.994;13.650;2023-11-19T03:07:50;3.92;;;1.95;;
76131;SDS011;64877;50.994;13.650;2023-11-19T03:10:15;2.60;;;1.70;;
76131;SDS011;64877;50.994;13.650;2023-11-19T03:12:41;3.17;;;1.58;;
76131;SDS011;64877;50.994;13.650;2023-11-19T03:15:09;2.97;;;1.85;;
76131;SDS011;64877;50.994;13.650;2023-11-19T03:17:38;3.22;;;1.90;;
76131;SDS011;64877;50.994;13.650;2023-11-19T03:20:05;2.88;;;1.67;;
76131;SDS011;64877;50.994;13.650;2023-11-19T03:22:39;3.13;;;1.65;;
76131;SDS011;64877;50.994;13.650;2023-11-19T03:25:06;2.47;;;1.73;;
76131;SDS011;64877;50.994;13.650;2023-11-19T03:27:34;3.30;;;1.58;;
76131;SDS011;64877;50.994;13.650;2023-11-19T03:30:01;2.90;;;1.80;;
76131;SDS011;64877;50.994;13.650;2023-11-19T03:32:30;2.85;;;1.50;;
76131;SDS011;64877;50.994;13.650;2023-11-19T03:34:57;2.78;;;1.70;;
76131;SDS011;64877;50.994;13.650;2023-11-19T03:37:23;3.53;;;1.77;;
76131;SDS011;64877;50.994;13.650;2023-11-19T03:39:49;2.38;;;1.40;;
76131;SDS011;64877;50.994;13.650;2023-11-19T03:42:14;3.05;;;1.77;;
76131;SDS011;64877;50.994;13.650;2023-11-19T03:44:40;2.97;;;1.67;;
76131;SDS011;64877;50.994;13.650;2023-11-19T03:47:05;2.83;;;1.52;;
76131;SDS011;64877;50.994;13.650;2023-11-19T03:49:32;3.30;;;1.75;;
76131;SDS011;64877;50.994;13.650;2023-11-19T03:51:57;2.60;;;1.50;;
76131;SDS011;64877;50.994;13.650;2023-11-19T03:54:22;2.53;;;1.40;;
76131;SDS011;64877;50.994;13.650;2023-11-19T03:56:48;2.00;;;1.13;;
76131;SDS011;64877;50.994;13.650;2023-11-19T03:59:14;2.72;;;1.40;;
76131;SDS011;64877;50.994;13.650;2023-11-19T04:01:40;2.13;;;1.17;;
76131;SDS011;64877;50.994;13.650;2023-11-19T04:04:06;2.70;;;1.58;;
76131;SDS011;64877;50.994;13.650;2023-11-19T04:06:31;2.80;;;1.33;;
76131;SDS011;64877;50.994;13.650;2023-11-19T04:08:57;1.85;;;1.27;;
76131;SDS011;64877;50.994;13.650;2023-11-19T04:11:22;1.90;;;1.20;;
76131;SDS011;64877;50.994;13.650;2023-11-19T04:13:48;2.42;;;1.27;;
76131;SDS011;64877;50.994;13.650;2023-11-19T04:16:14;1.83;;;1.08;;
76131;SDS011;64877;50.994;13.650;2023-11-19T04:18:40;2.03;;;1.20;;
76131;SDS011;64877;50.994;13.650;2023-11-19T04:21:06;1.70;;;1.13;;
76131;SDS011;64877;50.994;13.650;2023-11-19T04:23:32;1.80;;;1.00;;
76131;SDS011;64877;50.994;13.650;2023-11-19T04:25:57;1.98;;;1.25;;
76131;SDS011;64877;50.994;13.650;2023-11-19T04:28:23;2.00;;;1.08;;
76131;SDS011;64877;50.994;13.650;2023-11-19T04:30:52;1.83;;;1.08;;
76131;SDS011;64877;50.994;13.650;2023-11-19T04:33:17;2.20;;;1.25;;
76131;SDS011;64877;50.994;13.650;2023-11-19T04:35:43;1.63;;;0.90;;
76131;SDS011;64877;50.994;13.650;2023-11-19T04:38:08;2.53;;;1.15;;
76131;SDS011;64877;50.994;13.650;2023-11-19T04:40:34;2.47;;;1.33;;
76131;SDS011;64877;50.994;13.650;2023-11-19T04:42:59;1.90;;;1.13;;
76131;SDS011;64877;50.994;13.650;2023-11-19T04:45:25;3.25;;;1.00;;
76131;SDS011;64877;50.994;13.650;2023-11-19T04:47:50;1.58;;;1.00;;
76131;SDS011;64877;50.994;13.650;2023-11-19T04:50:15;2.30;;;1.25;;
76131;SDS011;64877;50.994;13.650;2023-11-19T04:52:41;1.98;;;0.98;;
76131;SDS011;64877;50.994;13.650;2023-11-19T04:55:10;1.88;;;1.00;;
76131;SDS011;64877;50.994;13.650;2023-11-19T04:57:36;2.22;;;1.20;;
76131;SDS011;64877;50.994;13.650;2023-11-19T05:00:02;2.03;;;1.10;;
76131;SDS011;64877;50.994;13.650;2023-11-19T05:02:30;1.88;;;1.00;;
76131;SDS011;64877;50.994;13.650;2023-11-19T05:04:55;3.35;;;1.33;;
76131;SDS011;64877;50.994;13.650;2023-11-19T05:07:21;1.60;;;0.93;;
76131;SDS011;64877;50.994;13.650;2023-11-19T05:09:46;2.20;;;1.35;;
76131;SDS011;64877;50.994;13.650;2023-11-19T05:12:12;2.30;;;1.40;;
76131;SDS011;64877;50.994;13.650;2023-11-19T05:14:37;2.50;;;1.60;;
76131;SDS011;64877;50.994;13.650;2023-11-19T05:17:03;2.25;;;1.45;;
76131;SDS011;64877;50.994;13.650;2023-11-19T05:19:29;2.22;;;1.33;;
76131;SDS011;64877;50.994;13.650;2023-11-19T05:21:55;2.08;;;1.30;;
76131;SDS011;64877;50.994;13.650;2023-11-19T05:24:20;3.47;;;1.42;;
76131;SDS011;64877;50.994;13.650;2023-11-19T05:26:46;2.40;;;1.42;;
76131;SDS011;64877;50.994;13.650;2023-11-19T05:29:12;2.20;;;1.30;;
76131;SDS011;64877;50.994;13.650;2023-11-19T05:31:37;2.17;;;1.25;;
76131;SDS011;64877;50.994;13.650;2023-11-19T05:34:03;2.53;;;1.35;;
76131;SDS011;64877;50.994;13.650;2023-11-19T05:36:29;2.45;;;1.40;;
76131;SDS011;64877;50.994;13.650;2023-11-19T05:38:55;2.30;;;1.38;;
76131;SDS011;64877;50.994;13.650;2023-11-19T05:41:20;3.03;;;1.40;;
76131;SDS011;64877;50.994;13.650;2023-11-19T05:43:46;2.30;;;1.30;;
76131;SDS011;64877;50.994;13.650;2023-11-19T05:46:11;2.13;;;1.10;;
76131;SDS011;64877;50.994;13.650;2023-11-19T05:48:38;1.90;;;0.90;;
76131;SDS011;64877;50.994;13.650;2023-11-19T05:51:04;3.42;;;1.25;;
76131;SDS011;64877;50.994;13.650;2023-11-19T05:53:30;1.52;;;0.90;;
76131;SDS011;64877;50.994;13.650;2023-11-19T05:55:56;2.53;;;1.00;;
76131;SDS011;64877;50.994;13.650;2023-11-19T05:58:23;3.92;;;1.17;;
76131;SDS011;64877;50.994;13.650;2023-11-19T06:00:57;2.50;;;1.02;;
76131;SDS011;64877;50.994;13.650;2023-11-19T06:03:22;2.10;;;1.05;;
76131;SDS011;64877;50.994;13.650;2023-11-19T06:05:48;1.75;;;0.80;;
76131;SDS011;64877;50.994;13.650;2023-11-19T06:08:14;3.13;;;1.38;;
76131;SDS011;64877;50.994;13.650;2023-11-19T06:10:40;2.05;;;0.90;;
76131;SDS011;64877;50.994;13.650;2023-11-19T06:13:06;6.95;;;1.00;;
76131;SDS011;64877;50.994;13.650;2023-11-19T06:15:35;1.60;;;0.80;;
76131;SDS011;64877;50.994;13.650;2023-11-19T06:18:01;2.10;;;0.75;;
76131;SDS011;64877;50.994;13.650;2023-11-19T06:20:28;1.80;;;0.90;;
76131;SDS011;64877;50.994;13.650;2023-11-19T06:22:55;2.30;;;0.95;;
76131;SDS011;64877;50.994;13.650;2023-11-19T06:25:22;2.60;;;1.20;;
76131;SDS011;64877;50.994;13.650;2023-11-19T06:27:49;1.65;;;0.90;;
76131;SDS011;64877;50.994;13.650;2023-11-19T06:30:14;2.70;;;0.95;;
76131;SDS011;64877;50.994;13.650;2023-11-19T06:32:40;0.85;;;0.50;;
76131;SDS011;64877;50.994;13.650;2023-11-19T06:35:06;1.42;;;0.77;;
76131;SDS011;64877;50.994;13.650;2023-11-19T06:37:31;1.83;;;1.00;;
76131;SDS011;64877;50.994;13.650;2023-11-19T06:39:57;2.33;;;0.70;;
76131;SDS011;64877;50.994;13.650;2023-11-19T06:42:23;1.42;;;0.65;;
76131;SDS011;64877;50.994;13.650;2023-11-19T06:44:48;2.63;;;0.57;;
76131;SDS011;64877;50.994;13.650;2023-11-19T06:47:14;2.03;;;0.73;;
76131;SDS011;64877;50.994;13.650;2023-11-19T06:49:40;1.40;;;0.70;;
76131;SDS011;64877;50.994;13.650;2023-11-19T06:52:08;1.38;;;0.60;;
76131;SDS011;64877;50.994;13.650;2023-11-19T06:54:34;1.33;;;0.60;;
76131;SDS011;64877;50.994;13.650;2023-11-19T06:56:59;0.70;;;0.30;;
76131;SDS011;64877;50.994;13.650;2023-11-19T06:59:30;3.60;;;0.60;;
76131;SDS011;64877;50.994;13.650;2023-11-19T07:01:56;0.88;;;0.43;;
76131;SDS011;64877;50.994;13.650;2023-11-19T07:04:21;2.00;;;1.00;;
76131;SDS011;64877;50.994;13.650;2023-11-19T07:06:47;1.23;;;0.45;;
76131;SDS011;64877;50.994;13.650;2023-11-19T07:09:13;1.15;;;0.65;;
76131;SDS011;64877;50.994;13.650;2023-11-19T07:11:41;1.20;;;0.50;;
76131;SDS011;64877;50.994;13.650;2023-11-19T07:14:07;1.50;;;0.75;;
76131;SDS011;64877;50.994;13.650;2023-11-19T07:16:33;1.23;;;0.70;;
76131;SDS011;64877;50.994;13.650;2023-11-19T07:19:00;2.58;;;1.60;;
76131;SDS011;64877;50.994;13.650;2023-11-19T07:21:26;1.58;;;0.68;;
76131;SDS011;64877;50.994;13.650;2023-11-19T07:23:53;3.47;;;0.70;;
76131;SDS011;64877;50.994;13.650;2023-11-19T07:26:20;4.50;;;1.20;;
76131;SDS011;64877;50.994;13.650;2023-11-19T07:28:45;1.42;;;0.50;;
76131;SDS011;64877;50.994;13.650;2023-11-19T07:31:12;0.50;;;0.30;;
76131;SDS011;64877;50.994;13.650;2023-11-19T07:33:39;1.30;;;0.43;;
76131;SDS011;64877;50.994;13.650;2023-11-19T07:36:05;0.40;;;0.30;;
76131;SDS011;64877;50.994;13.650;2023-11-19T07:38:30;1.17;;;0.40;;
76131;SDS011;64877;50.994;13.650;2023-11-19T07:40:56;0.65;;;0.35;;
76131;SDS011;64877;50.994;13.650;2023-11-19T07:43:21;1.95;;;0.60;;
76131;SDS011;64877;50.994;13.650;2023-11-19T07:45:47;1.77;;;0.50;;
76131;SDS011;64877;50.994;13.650;2023-11-19T07:48:13;3.00;;;1.10;;
76131;SDS011;64877;50.994;13.650;2023-11-19T07:50:39;1.67;;;0.60;;
76131;SDS011;64877;50.994;13.650;2023-11-19T07:53:07;0.93;;;0.40;;
76131;SDS011;64877;50.994;13.650;2023-11-19T07:55:34;1.83;;;0.90;;
76131;SDS011;64877;50.994;13.650;2023-11-19T07:57:59;1.42;;;0.50;;
76131;SDS011;64877;50.994;13.650;2023-11-19T08:00:25;1.10;;;0.35;;
76131;SDS011;64877;50.994;13.650;2023-11-19T08:02:50;0.73;;;0.40;;
76131;SDS011;64877;50.994;13.650;2023-11-19T08:05:16;1.15;;;0.40;;
76131;SDS011;64877;50.994;13.650;2023-11-19T08:07:42;1.75;;;0.80;;
76131;SDS011;64877;50.994;13.650;2023-11-19T08:10:08;2.13;;;0.50;;
76131;SDS011;64877;50.994;13.650;2023-11-19T08:12:36;1.02;;;0.40;;
76131;SDS011;64877;50.994;13.650;2023-11-19T08:15:02;5.53;;;0.70;;
76131;SDS011;64877;50.994;13.650;2023-11-19T08:17:29;1.38;;;0.30;;
76131;SDS011;64877;50.994;13.650;2023-11-19T08:19:55;1.85;;;0.65;;
76131;SDS011;64877;50.994;13.650;2023-11-19T08:22:21;1.30;;;0.40;;
76131;SDS011;64877;50.994;13.650;2023-11-19T08:24:47;1.02;;;0.50;;
76131;SDS011;64877;50.994;13.650;2023-11-19T08:27:13;4.53;;;0.60;;
76131;SDS011;64877;50.994;13.650;2023-11-19T08:29:39;1.35;;;0.57;;
76131;SDS011;64877;50.994;13.650;2023-11-19T08:32:05;1.75;;;0.70;;
76131;SDS011;64877;50.994;13.650;2023-11-19T08:34:31;2.13;;;0.50;;
76131;SDS011;64877;50.994;13.650;2023-11-19T08:36:57;0.77;;;0.30;;
76131;SDS011;64877;50.994;13.650;2023-11-19T08:39:22;2.30;;;0.60;;
76131;SDS011;64877;50.994;13.650;2023-11-19T08:41:48;0.95;;;0.50;;
76131;SDS011;64877;50.994;13.650;2023-11-19T08:44:13;3.10;;;0.70;;
76131;SDS011;64877;50.994;13.650;2023-11-19T08:46:45;2.00;;;1.00;;
76131;SDS011;64877;50.994;13.650;2023-11-19T08:49:12;1.02;;;0.50;;
76131;SDS011;64877;50.994;13.650;2023-11-19T08:51:38;2.90;;;0.70;;
76131;SDS011;64877;50.994;13.650;2023-11-19T08:54:03;2.25;;;0.82;;
76131;SDS011;64877;50.994;13.650;2023-11-19T08:56:29;3.15;;;1.08;;
76131;SDS011;64877;50.994;13.650;2023-11-19T08:58:58;2.45;;;0.80;;
76131;SDS011;64877;50.994;13.650;2023-11-19T09:01:23;2.55;;;0.80;;
76131;SDS011;64877;50.994;13.650;2023-11-19T09:03:49;1.58;;;0.68;;
76131;SDS011;64877;50.994;13.650;2023-11-19T09:06:15;2.13;;;0.55;;
76131;SDS011;64877;50.994;13.650;2023-11-19T09:08:42;1.38;;;0.70;;
76131;SDS011;64877;50.994;13.650;2023-11-19T09:11:07;3.47;;;0.82;;
76131;SDS011;64877;50.994;13.650;2023-11-19T09:13:34;1.65;;;0.65;;
76131;SDS011;64877;50.994;13.650;2023-11-19T09:16:00;2.17;;;0.80;;
76131;SDS011;64877;50.994;13.650;2023-11-19T09:18:31;4.35;;;1.42;;
76131;SDS011;64877;50.994;13.650;2023-11-19T09:20:57;3.65;;;0.90;;
76131;SDS011;64877;50.994;13.650;2023-11-19T09:23:23;4.22;;;1.30;;
76131;SDS011;64877;50.994;13.650;2023-11-19T09:25:50;4.15;;;1.67;;
76131;SDS011;64877;50.994;13.650;2023-11-19T09:28:16;4.93;;;1.50;;
76131;SDS011;64877;50.994;13.650;2023-11-19T09:30:41;4.05;;;0.60;;
76131;SDS011;64877;50.994;13.650;2023-11-19T09:33:07;1.35;;;0.55;;
76131;SDS011;64877;50.994;13.650;2023-11-19T09:35:32;3.42;;;0.82;;
76131;SDS011;64877;50.994;13.650;2023-11-19T09:37:58;3.17;;;0.73;;
76131;SDS011;64877;50.994;13.650;2023-11-19T09:40:24;3.58;;;0.82;;
76131;SDS011;64877;50.994;13.650;2023-11-19T09:42:50;4.00;;;1.10;;
76131;SDS011;64877;50.994;13.650;2023-11-19T09:45:16;2.45;;;0.90;;
76131;SDS011;64877;50.994;13.650;2023-11-19T09:47:43;4.03;;;0.90;;
76131;SDS011;64877;50.994;13.650;2023-11-19T09:50:22;6.70;;;1.55;;
76131;SDS011;64877;50.994;13.650;2023-11-19T09:52:47;1.67;;;0.70;;
76131;SDS011;64877;50.994;13.650;2023-11-19T09:55:13;3.05;;;0.93;;
76131;SDS011;64877;50.994;13.650;2023-11-19T09:57:40;3.17;;;0.95;;
76131;SDS011;64877;50.994;13.650;2023-11-19T10:00:07;5.35;;;1.10;;
76131;SDS011;64877;50.994;13.650;2023-11-19T10:02:33;3.78;;;1.15;;
76131;SDS011;64877;50.994;13.650;2023-11-19T10:05:04;5.85;;;1.90;;
76131;SDS011;64877;50.994;13.650;2023-11-19T10:07:31;4.30;;;1.75;;
76131;SDS011;64877;50.994;13.650;2023-11-19T10:09:58;7.88;;;1.73;;
76131;SDS011;64877;50.994;13.650;2023-11-19T10:12:26;5.43;;;1.10;;
76131;SDS011;64877;50.994;13.650;2023-11-19T10:14:52;3.53;;;1.00;;
76131;SDS011;64877;50.994;13.650;2023-11-19T10:17:21;2.90;;;0.85;;
76131;SDS011;64877;50.994;13.650;2023-11-19T10:19:47;4.40;;;0.90;;
76131;SDS011;64877;50.994;13.650;2023-11-19T10:22:12;4.43;;;0.90;;
76131;SDS011;64877;50.994;13.650;2023-11-19T10:24:40;1.92;;;0.88;;
76131;SDS011;64877;50.994;13.650;2023-11-19T10:27:09;3.08;;;1.15;;
76131;SDS011;64877;50.994;13.650;2023-11-19T10:29:37;3.50;;;0.90;;
76131;SDS011;64877;50.994;13.650;2023-11-19T10:32:03;1.75;;;0.73;;
76131;SDS011;64877;50.994;13.650;2023-11-19T10:34:29;1.95;;;0.63;;
76131;SDS011;64877;50.994;13.650;2023-11-19T10:36:55;4.63;;;1.10;;
76131;SDS011;64877;50.994;13.650;2023-11-19T10:39:21;2.47;;;0.77;;
76131;SDS011;64877;50.994;13.650;2023-11-19T10:44:30;4.05;;;0.98;;
76131;SDS011;64877;50.994;13.650;2023-11-19T10:46:58;1.00;;;0.43;;
76131;SDS011;64877;50.994;13.650;2023-11-19T10:49:24;3.40;;;1.25;;
76131;SDS011;64877;50.994;13.650;2023-11-19T10:51:50;4.05;;;1.10;;
76131;SDS011;64877;50.994;13.650;2023-11-19T10:54:18;2.95;;;0.60;;
76131;SDS011;64877;50.994;13.650;2023-11-19T10:56:44;4.70;;;0.55;;
76131;SDS011;64877;50.994;13.650;2023-11-19T10:59:11;2.55;;;0.70;;
76131;SDS011;64877;50.994;13.650;2023-11-19T11:01:45;1.70;;;0.60;;
76131;SDS011;64877;50.994;13.650;2023-11-19T11:04:21;3.00;;;0.75;;
76131;SDS011;64877;50.994;13.650;2023-11-19T11:06:49;4.78;;;0.90;;
76131;SDS011;64877;50.994;13.650;2023-11-19T11:09:16;1.23;;;0.57;;
76131;SDS011;64877;50.994;13.650;2023-11-19T11:11:43;1.30;;;0.60;;
76131;SDS011;64877;50.994;13.650;2023-11-19T11:14:12;2.13;;;0.70;;
76131;SDS011;64877;50.994;13.650;2023-11-19T11:16:42;3.72;;;0.90;;
76131;SDS011;64877;50.994;13.650;2023-11-19T11:19:10;2.78;;;1.00;;
76131;SDS011;64877;50.994;13.650;2023-11-19T11:24:15;2.47;;;0.60;;
76131;SDS011;64877;50.994;13.650;2023-11-19T11:32:33;3.25;;;0.98;;
76131;SDS011;64877;50.994;13.650;2023-11-19T11:37:44;3.90;;;0.88;;
76131;SDS011;64877;50.994;13.650;2023-11-19T11:40:16;3.45;;;1.08;;
76131;SDS011;64877;50.994;13.650;2023-11-19T11:42:43;2.15;;;0.68;;
76131;SDS011;64877;50.994;13.650;2023-11-19T11:45:12;4.28;;;0.95;;
76131;SDS011;64877;50.994;13.650;2023-11-19T11:50:18;4.78;;;0.75;;
76131;SDS011;64877;50.994;13.650;2023-11-19T11:57:51;3.90;;;0.90;;
76131;SDS011;64877;50.994;13.650;2023-11-19T12:02:51;5.32;;;1.25;;
76131;SDS011;64877;50.994;13.650;2023-11-19T12:05:17;5.18;;;1.10;;
76131;SDS011;64877;50.994;13.650;2023-11-19T12:07:45;4.70;;;1.52;;
76131;SDS011;64877;50.994;13.650;2023-11-19T12:10:25;4.28;;;1.25;;
76131;SDS011;64877;50.994;13.650;2023-11-19T12:12:57;9.25;;;1.35;;
76131;SDS011;64877;50.994;13.650;2023-11-19T12:15:23;4.43;;;1.10;;
76131;SDS011;64877;50.994;13.650;2023-11-19T12:17:51;6.20;;;0.93;;
76131;SDS011;64877;50.994;13.650;2023-11-19T12:20:18;6.60;;;1.30;;
76131;SDS011;64877;50.994;13.650;2023-11-19T12:22:45;6.18;;;1.90;;
76131;SDS011;64877;50.994;13.650;2023-11-19T12:25:12;7.05;;;1.15;;
76131;SDS011;64877;50.994;13.650;2023-11-19T12:27:48;12.60;;;1.23;;
76131;SDS011;64877;50.994;13.650;2023-11-19T12:30:24;8.18;;;1.23;;
76131;SDS011;64877;50.994;13.650;2023-11-19T12:32:51;10.38;;;2.33;;
76131;SDS011;64877;50.994;13.650;2023-11-19T12:35:18;4.70;;;1.30;;
76131;SDS011;64877;50.994;13.650;2023-11-19T12:40:14;6.55;;;1.90;;
76131;SDS011;64877;50.994;13.650;2023-11-19T12:42:44;5.28;;;1.27;;
76131;SDS011;64877;50.994;13.650;2023-11-19T12:45:13;5.28;;;1.30;;
76131;SDS011;64877;50.994;13.650;2023-11-19T12:47:41;6.28;;;1.20;;
76131;SDS011;64877;50.994;13.650;2023-11-19T12:50:07;6.45;;;1.58;;
76131;SDS011;64877;50.994;13.650;2023-11-19T12:52:34;7.05;;;1.65;;
76131;SDS011;64877;50.994;13.650;2023-11-19T12:55:01;7.28;;;1.38;;
76131;SDS011;64877;50.994;13.650;2023-11-19T12:57:40;11.35;;;1.85;;
76131;SDS011;64877;50.994;13.650;2023-11-19T13:00:07;7.22;;;1.48;;
76131;SDS011;64877;50.994;13.650;2023-11-19T13:02:52;7.72;;;1.52;;
76131;SDS011;64877;50.994;13.650;2023-11-19T13:05:29;7.00;;;1.50;;
76131;SDS011;64877;50.994;13.650;2023-11-19T13:08:01;11.32;;;1.80;;
76131;SDS011;64877;50.994;13.650;2023-11-19T13:10:31;10.32;;;1.77;;
76131;SDS011;64877;50.994;13.650;2023-11-19T13:15:26;5.75;;;1.63;;
76131;SDS011;64877;50.994;13.650;2023-11-19T13:17:51;12.95;;;2.53;;
76131;SDS011;64877;50.994;13.650;2023-11-19T13:20:18;8.90;;;1.67;;
76131;SDS011;64877;50.994;13.650;2023-11-19T13:22:59;6.65;;;1.27;;
76131;SDS011;64877;50.994;13.650;2023-11-19T13:25:26;10.50;;;2.45;;
76131;SDS011;64877;50.994;13.650;2023-11-19T13:27:53;7.90;;;2.03;;
76131;SDS011;64877;50.994;13.650;2023-11-19T13:30:19;13.38;;;2.75;;
76131;SDS011;64877;50.994;13.650;2023-11-19T13:32:45;8.50;;;2.00;;
76131;SDS011;64877;50.994;13.650;2023-11-19T13:35:11;14.40;;;2.35;;
76131;SDS011;64877;50.994;13.650;2023-11-19T13:37:40;14.57;;;2.47;;
76131;SDS011;64877;50.994;13.650;2023-11-19T13:40:06;10.85;;;2.28;;
76131;SDS011;64877;50.994;13.650;2023-11-19T13:42:36;8.55;;;1.58;;
76131;SDS011;64877;50.994;13.650;2023-11-19T13:45:06;8.70;;;1.77;;
76131;SDS011;64877;50.994;13.650;2023-11-19T13:47:36;10.73;;;2.45;;
76131;SDS011;64877;50.994;13.650;2023-11-19T13:50:01;8.23;;;1.73;;
76131;SDS011;64877;50.994;13.650;2023-11-19T13:52:31;9.50;;;2.17;;
76131;SDS011;64877;50.994;13.650;2023-11-19T13:54:56;14.95;;;2.00;;
76131;SDS011;64877;50.994;13.650;2023-11-19T13:57:22;13.90;;;2.60;;
76131;SDS011;64877;50.994;13.650;2023-11-19T13:59:47;13.70;;;3.45;;
76131;SDS011;64877;50.994;13.650;2023-11-19T14:02:12;9.98;;;2.63;;
76131;SDS011;64877;50.994;13.650;2023-11-19T14:04:38;12.15;;;2.05;;
76131;SDS011;64877;50.994;13.650;2023-11-19T14:07:03;13.55;;;1.92;;
76131;SDS011;64877;50.994;13.650;2023-11-19T14:09:29;14.75;;;2.58;;
76131;SDS011;64877;50.994;13.650;2023-11-19T14:11:54;7.15;;;1.77;;
76131;SDS011;64877;50.994;13.650;2023-11-19T14:14:20;8.55;;;2.05;;
76131;SDS011;64877;50.994;13.650;2023-11-19T14:16:46;8.63;;;1.88;;
76131;SDS011;64877;50.994;13.650;2023-11-19T14:19:11;7.57;;;1.85;;
76131;SDS011;64877;50.994;13.650;2023-11-19T14:21:38;11.90;;;1.88;;
76131;SDS011;64877;50.994;13.650;2023-11-19T14:24:03;8.30;;;2.25;;
76131;SDS011;64877;50.994;13.650;2023-11-19T14:26:29;13.95;;;2.55;;
76131;SDS011;64877;50.994;13.650;2023-11-19T14:28:55;9.45;;;1.90;;
76131;SDS011;64877;50.994;13.650;2023-11-19T14:31:20;11.32;;;2.28;;
76131;SDS011;64877;50.994;13.650;2023-11-19T14:33:46;6.95;;;2.33;;
76131;SDS011;64877;50.994;13.650;2023-11-19T14:36:13;6.22;;;1.38;;
76131;SDS011;64877;50.994;13.650;2023-11-19T14:38:38;10.25;;;1.60;;
76131;SDS011;64877;50.994;13.650;2023-11-19T14:41:05;13.77;;;2.35;;
76131;SDS011;64877;50.994;13.650;2023-11-19T14:43:30;8.63;;;1.58;;
76131;SDS011;64877;50.994;13.650;2023-11-19T14:45:56;10.93;;;2.13;;
76131;SDS011;64877;50.994;13.650;2023-11-19T14:48:22;10.10;;;2.05;;
76131;SDS011;64877;50.994;13.650;2023-11-19T14:50:47;7.57;;;1.95;;
76131;SDS011;64877;50.994;13.650;2023-11-19T14:53:13;10.00;;;3.17;;
76131;SDS011;64877;50.994;13.650;2023-11-19T14:55:38;9.60;;;2.20;;
76131;SDS011;64877;50.994;13.650;2023-11-19T14:58:04;12.38;;;2.25;;
76131;SDS011;64877;50.994;13.650;2023-11-19T15:00:29;10.75;;;2.20;;
76131;SDS011;64877;50.994;13.650;2023-11-19T15:02:55;14.10;;;2.80;;
76131;SDS011;64877;50.994;13.650;2023-11-19T15:05:21;9.57;;;1.95;;